Corona Range LRC

2021-01-22 05:25:00

  • imperial
Date Time Air Temperature Relative Humidity Dewpoint Windchill Heat Index Wind Speed Wind Dir. Rain Solar Radiation Soil Temperature
2m 2m 3m 3m 10cm
US/Mountain F % F F F MPH deg in MJ/m^2 F
max avg avg
2021-01-21 05:40:00 36.3 73.8 28.8 27.7 36.3 13.3 13.3 11.0 284.6 293.7 0.00 0.0000000 37.7
2021-01-21 05:45:00 37.0 72.6 29.0 28.2 37.0 14.0 15.3 12.4 260.9 286.4 0.00 0.0000000 37.6
2021-01-21 05:50:00 36.6 73.3 28.9 28.6 36.6 12.1 15.3 12.0 277.0 289.7 0.00 0.0000000 37.6
2021-01-21 05:55:00 36.7 73.0 28.9 30.4 36.7 8.3 14.0 11.4 265.1 284.5 0.00 0.0000000 37.6
2021-01-21 06:00:00 36.9 72.9 29.0 29.2 36.9 11.2 12.8 10.0 275.0 276.4 0.00 0.0000000 37.6
2021-01-21 06:05:00 37.1 72.6 29.2 30.7 37.1 8.7 12.6 8.7 303.2 281.0 0.00 0.0000000 37.6
2021-01-21 06:10:00 37.5 71.8 29.2 30.2 37.5 10.6 14.2 10.1 334.8 293.5 0.00 0.0000000 37.6
2021-01-21 06:15:00 37.7 71.0 29.2 29.8 37.7 12.2 14.6 12.1 289.8 278.2 0.00 0.0000000 37.6
2021-01-21 06:20:00 37.7 70.8 29.1 28.7 37.7 15.6 17.4 13.0 280.5 284.3 0.00 0.0000000 37.6
2021-01-21 06:25:00 37.6 70.9 29.0 28.5 37.6 15.6 15.6 12.7 285.6 289.0 0.00 0.0000000 37.6
2021-01-21 06:30:00 37.6 70.7 29.0 30.0 37.6 11.7 16.4 13.0 252.9 275.9 0.00 0.0000000 37.6
2021-01-21 06:35:00 37.7 70.5 29.0 28.7 37.7 15.5 15.6 12.8 282.8 280.0 0.00 0.0000000 37.6
2021-01-21 06:40:00 37.9 70.2 29.1 29.9 37.9 12.8 16.2 12.4 282.4 283.0 0.00 0.0000000 37.6
2021-01-21 06:45:00 37.9 70.2 29.1 29.9 37.9 12.8 15.8 12.5 280.4 277.2 0.00 0.0000000 37.6
2021-01-21 06:50:00 38.1 69.8 29.1 30.0 38.1 13.1 17.6 14.3 274.0 285.4 0.00 0.0000000 37.6
2021-01-21 06:55:00 38.4 68.8 29.1 30.3 38.4 13.5 19.2 14.7 286.0 280.5 0.00 0.0000000 37.6
2021-01-21 07:00:00 38.5 68.8 29.1 30.8 38.5 12.4 16.9 13.6 293.9 280.7 0.00 0.0000000 37.6
2021-01-21 07:05:00 38.3 69.6 29.2 30.8 38.3 11.7 16.4 11.6 284.1 273.8 0.00 0.0000000 37.6
2021-01-21 07:10:00 38.4 69.3 29.2 30.4 38.4 13.1 17.2 13.8 287.5 273.5 0.00 0.0000000 37.6
2021-01-21 07:15:00 38.5 69.7 29.5 31.6 38.5 10.5 14.9 11.9 280.5 274.2 0.00 0.0000225 37.6
2021-01-21 07:20:00 38.4 69.8 29.4 30.0 38.4 14.4 14.9 12.1 285.5 282.7 0.00 0.0019161 37.6
2021-01-21 07:25:00 38.9 69.1 29.6 30.5 38.9 14.9 16.2 13.3 253.3 275.7 0.00 0.0034050 37.6
2021-01-21 07:30:00 39.4 68.4 29.9 31.0 39.4 15.1 19.2 14.0 269.8 279.1 0.00 0.0042678 37.6
2021-01-21 07:35:00 39.4 69.4 30.2 30.7 39.4 16.0 16.0 12.8 262.2 280.8 0.00 0.0067990 37.6
2021-01-21 07:40:00 39.4 68.8 30.0 30.9 39.4 15.5 16.7 14.0 290.6 273.5 0.00 0.0099519 37.6
2021-01-21 07:45:00 40.0 67.9 30.3 31.6 40.0 15.6 18.1 15.1 283.2 264.1 0.00 0.0092330 37.6
2021-01-21 07:50:00 40.3 67.6 30.4 31.8 40.3 16.2 18.3 14.0 279.0 273.3 0.00 0.0134420 37.6
2021-01-21 07:55:00 41.3 66.0 30.8 32.6 41.3 17.8 18.1 15.2 273.7 275.9 0.00 0.0280243 37.6
2021-01-21 08:00:00 41.9 65.2 31.0 34.1 41.9 15.3 22.3 15.8 307.2 269.9 0.00 0.0319700 37.6
2021-01-21 08:05:00 42.1 64.6 31.0 33.4 42.1 19.4 20.3 16.2 261.2 276.0 0.00 0.0321751 37.6
2021-01-21 08:10:00 42.7 63.3 31.1 34.3 42.7 18.9 19.6 15.0 272.6 275.8 0.00 0.0318807 37.6
2021-01-21 08:15:00 43.6 60.9 31.0 35.3 43.6 19.4 20.6 16.2 276.8 278.0 0.00 0.0401456 37.6
2021-01-21 08:20:00 43.9 59.8 30.9 35.9 43.9 18.7 20.6 16.8 251.3 271.6 0.00 0.0395580 37.6
2021-01-21 08:25:00 44.1 58.3 30.4 35.9 44.1 19.4 24.6 19.0 277.2 269.8 0.00 0.0416650 37.6
2021-01-21 08:30:00 44.4 57.7 30.5 37.7 44.4 14.2 21.4 17.0 276.9 261.4 0.00 0.0445190 37.6
2021-01-21 08:35:00 44.5 56.4 30.0 35.9 44.5 22.4 22.4 18.5 268.7 266.1 0.00 0.0491490 37.6
2021-01-21 08:40:00 45.0 56.3 30.3 38.1 45.0 15.3 21.7 16.3 289.6 265.7 0.00 0.0459042 37.6
2021-01-21 08:45:00 45.6 55.0 30.3 39.3 45.6 13.7 19.4 15.7 269.4 271.8 0.00 0.0585394 37.7
2021-01-21 08:50:00 45.5 54.0 29.8 37.7 45.5 19.8 20.1 15.3 239.9 272.0 0.00 0.0395655 37.7
2021-01-21 08:55:00 45.3 54.9 30.1 39.1 45.3 13.5 18.7 14.7 285.8 266.2 0.00 0.0409829 37.7
2021-01-21 09:00:00 46.3 52.4 29.8 38.8 46.3 19.2 19.8 15.9 273.2 269.4 0.00 0.0541890 37.7
2021-01-21 09:05:00 46.9 50.0 29.3 40.0 46.9 17.6 19.2 14.7 272.3 274.3 0.00 0.0504340 37.7
2021-01-21 09:10:00 47.4 49.0 29.1 42.0 47.4 12.2 18.7 15.5 264.4 269.9 0.00 0.0502281 37.7
2021-01-21 09:15:00 47.5 48.3 29.0 41.3 47.5 15.5 18.5 13.4 271.6 258.5 0.00 0.0347099 37.7
2021-01-21 09:20:00 47.4 48.1 28.7 41.7 47.4 13.1 18.0 13.9 259.9 262.2 0.00 0.0383202 37.8
2021-01-21 09:25:00 48.6 46.1 28.8 42.7 48.6 15.5 17.6 14.4 249.7 261.8 0.00 0.0681203 37.8
2021-01-21 09:30:00 49.2 44.6 28.5 43.6 49.2 14.7 17.8 14.6 289.9 270.0 0.00 0.0726875 37.8
2021-01-21 09:35:00 49.9 43.0 28.2 44.2 49.9 16.2 21.0 15.7 256.8 264.6 0.00 0.0756201 37.8
2021-01-21 09:40:00 50.5 41.3 27.8 50.5 50.5 15.1 19.6 15.2 252.0 265.3 0.00 0.0780162 37.9
2021-01-21 09:45:00 50.6 42.6 28.7 50.6 50.6 9.4 19.6 14.5 280.3 277.3 0.00 0.0803685 37.9
2021-01-21 09:50:00 50.4 42.3 28.3 50.4 50.4 18.3 19.4 14.4 291.0 284.6 0.00 0.0813331 38.0
2021-01-21 09:55:00 50.6 41.6 28.1 50.6 50.6 15.1 19.6 16.5 290.0 275.1 0.00 0.0863953 38.0
2021-01-21 10:00:00 50.6 41.5 28.0 50.6 50.6 19.2 21.2 17.0 248.5 273.1 0.00 0.0877873 38.1
2021-01-21 10:05:00 50.4 42.1 28.2 50.4 50.4 17.4 19.6 15.0 292.5 276.6 0.00 0.0582396 38.1
2021-01-21 10:10:00 49.0 44.6 28.3 43.6 49.0 14.0 20.1 15.2 288.5 275.8 0.00 0.0331862 38.2
2021-01-21 10:15:00 48.9 44.8 28.4 42.4 48.9 18.7 21.0 15.5 281.6 274.3 0.00 0.0441903 38.3
2021-01-21 10:20:00 49.0 44.7 28.4 43.6 49.0 13.9 19.4 15.3 300.1 269.9 0.00 0.0419240 38.3
2021-01-21 10:25:00 48.8 45.5 28.7 44.4 48.8 10.5 17.2 12.8 253.7 274.0 0.00 0.0382033 38.4
2021-01-21 10:30:00 49.4 44.3 28.5 43.2 49.4 18.0 18.3 13.3 270.0 265.7 0.00 0.0624277 38.4
2021-01-21 10:35:00 50.2 43.8 29.0 50.2 50.2 13.0 17.8 12.5 278.3 275.9 0.00 0.0741662 38.5
2021-01-21 10:40:00 51.1 43.1 29.4 51.1 51.1 9.6 17.6 13.8 274.7 275.8 0.00 0.0928140 38.6
2021-01-21 10:45:00 51.0 42.9 29.2 51.0 51.0 11.5 18.3 14.3 261.8 274.6 0.00 0.0847416 38.7
2021-01-21 10:50:00 50.3 43.9 29.1 50.3 50.3 14.2 20.8 14.5 261.6 272.5 0.00 0.0597086 38.7
2021-01-21 10:55:00 49.8 45.1 29.3 44.7 49.8 13.3 21.0 14.6 272.3 272.1 0.00 0.0536604 38.8
2021-01-21 11:00:00 50.3 43.7 29.1 50.3 50.3 14.7 17.2 13.7 260.5 277.6 0.00 0.0730766 38.9
2021-01-21 11:05:00 52.0 41.0 29.0 52.0 52.0 14.2 16.5 13.6 251.4 261.3 0.00 0.1110833 39.0
2021-01-21 11:10:00 52.5 40.0 28.9 52.5 52.5 17.1 17.1 13.7 304.4 277.1 0.00 0.1117986 39.1
2021-01-21 11:15:00 52.3 40.8 29.2 52.3 52.3 12.6 18.0 14.2 269.7 273.5 0.00 0.1126871 39.1
2021-01-21 11:20:00 52.8 40.1 29.2 52.8 52.8 14.9 19.6 15.6 258.7 265.6 0.00 0.1125658 39.3
2021-01-21 11:25:00 52.8 38.3 28.1 52.8 52.8 17.1 21.2 17.4 247.5 257.2 0.00 0.0960740 39.3
2021-01-21 11:30:00 51.7 41.0 28.7 51.7 51.7 12.8 20.8 16.0 235.7 262.3 0.00 0.0528076 39.4
2021-01-21 11:35:00 52.1 39.6 28.3 52.1 52.1 16.5 19.8 14.2 273.5 269.3 0.00 0.0571259 39.5
2021-01-21 11:40:00 51.7 40.8 28.6 51.7 51.7 9.2 19.9 15.0 248.3 268.6 0.00 0.0530649 39.6
2021-01-21 11:45:00 51.7 40.4 28.3 51.7 51.7 14.9 20.1 16.4 268.2 277.8 0.00 0.0734755 39.7
2021-01-21 11:50:00 52.1 39.8 28.4 52.1 52.1 15.3 19.0 14.4 268.8 277.0 0.00 0.0637980 39.8
2021-01-21 11:55:00 51.5 40.4 28.2 51.5 51.5 11.0 21.7 14.8 271.3 264.3 0.00 0.0526169 40.0
2021-01-21 12:00:00 51.8 40.1 28.3 51.8 51.8 15.3 18.3 13.8 274.9 268.9 0.00 0.0558761 40.1
2021-01-21 12:05:00 52.1 39.8 28.4 52.1 52.1 13.1 18.9 15.0 277.5 264.9 0.00 0.0694622 40.2
2021-01-21 12:10:00 52.2 39.8 28.5 52.2 52.2 13.5 18.0 14.1 271.6 269.4 0.00 0.0676005 40.3
2021-01-21 12:15:00 53.0 39.6 29.0 53.0 53.0 10.5 16.0 11.8 247.3 275.2 0.00 0.0869217 40.4
2021-01-21 12:20:00 53.6 37.6 28.3 53.6 53.6 16.5 18.7 13.3 279.8 254.5 0.00 0.1102978 40.5
2021-01-21 12:25:00 53.9 37.1 28.3 53.9 53.9 10.3 18.7 13.9 280.0 266.9 0.00 0.1181441 40.6
2021-01-21 12:30:00 54.1 37.8 28.9 54.1 54.1 15.3 16.4 12.9 270.8 264.8 0.00 0.1182518 40.7
2021-01-21 12:35:00 54.8 35.3 27.8 54.8 54.8 10.3 14.9 9.8 286.2 271.7 0.00 0.1180822 40.8
2021-01-21 12:40:00 53.6 36.2 27.3 53.6 53.6 11.0 16.2 12.5 262.2 260.5 0.00 0.0714932 41.0
2021-01-21 12:45:00 54.2 35.2 27.3 54.2 54.2 12.1 17.6 13.3 261.9 252.7 0.00 0.1065627 41.1
2021-01-21 12:50:00 54.5 34.6 27.2 54.5 54.5 13.9 16.4 12.0 270.2 266.0 0.00 0.0981437 41.2
2021-01-21 12:55:00 54.5 34.7 27.1 54.5 54.5 10.6 14.9 11.5 254.9 264.3 0.00 0.0954390 41.3
2021-01-21 13:00:00 54.8 34.2 27.1 54.8 54.8 10.5 13.9 10.3 245.2 261.1 0.00 0.1155956 41.4
2021-01-21 13:05:00 55.5 34.1 27.6 55.5 55.5 8.5 16.9 10.6 257.6 263.4 0.00 0.1210373 41.5
2021-01-21 13:10:00 54.9 34.6 27.5 54.9 54.9 10.1 17.8 10.7 243.5 247.3 0.00 0.0749798 41.6
2021-01-21 13:15:00 53.9 34.1 26.2 53.9 53.9 15.1 16.9 14.0 272.4 251.8 0.00 0.0663538 41.7
2021-01-21 13:20:00 53.7 34.5 26.4 53.7 53.7 14.6 16.0 13.4 236.4 238.0 0.00 0.0604144 41.9
2021-01-21 13:25:00 53.6 34.5 26.3 53.6 53.6 11.2 14.2 11.6 271.4 237.3 0.00 0.0615234 42.0
2021-01-21 13:30:00 53.7 34.2 26.2 53.7 53.7 17.6 19.4 15.2 247.9 238.8 0.00 0.0782662 42.1
2021-01-21 13:35:00 53.3 35.3 26.6 53.3 53.3 14.0 22.4 16.8 255.6 236.9 0.00 0.0716185 42.2
2021-01-21 13:40:00 53.0 36.1 26.9 53.0 53.0 15.6 22.3 15.6 240.7 247.3 0.00 0.0517166 42.4
2021-01-21 13:45:00 52.5 37.0 27.0 52.5 52.5 18.7 20.1 16.6 227.6 236.0 0.00 0.0479928 42.5
2021-01-21 13:50:00 52.5 37.4 27.2 52.5 52.5 13.7 18.5 14.9 234.5 232.8 0.00 0.0523192 42.6
2021-01-21 13:55:00 52.4 38.0 27.5 52.4 52.4 16.9 19.8 15.6 224.4 234.2 0.00 0.0557594 42.7
2021-01-21 14:00:00 53.8 36.3 27.6 53.8 53.8 21.5 21.5 16.3 226.5 232.3 0.00 0.1012843 42.9
2021-01-21 14:05:00 54.4 35.5 27.7 54.4 54.4 17.2 22.8 16.5 222.4 225.7 0.00 0.0995022 43.0
2021-01-21 14:10:00 54.4 35.4 27.6 54.4 54.4 17.1 18.1 15.6 231.4 217.1 0.00 0.0933620 43.1
2021-01-21 14:15:00 54.2 36.1 27.9 54.2 54.2 19.0 19.2 14.6 243.8 234.4 0.00 0.0905689 43.2
2021-01-21 14:20:00 54.1 36.2 27.8 54.1 54.1 11.7 21.0 14.7 246.2 236.4 0.00 0.0891443 43.3
2021-01-21 14:25:00 54.8 35.7 28.1 54.8 54.8 16.4 19.2 13.6 256.5 252.8 0.00 0.0878437 43.4
2021-01-21 14:30:00 54.5 35.7 27.8 54.5 54.5 13.3 18.1 14.6 249.9 240.5 0.00 0.0796291 43.5
2021-01-21 14:35:00 54.8 35.8 28.2 54.8 54.8 11.0 19.0 15.0 247.7 235.1 0.00 0.0915016 43.6
2021-01-21 14:40:00 54.3 36.4 28.2 54.3 54.3 20.1 20.1 15.1 260.1 232.1 0.00 0.0699575 43.7
2021-01-21 14:45:00 54.0 36.7 28.1 54.0 54.0 16.7 23.2 16.9 208.6 222.6 0.00 0.0844959 43.9
2021-01-21 14:50:00 53.5 37.9 28.5 53.5 53.5 11.9 19.4 15.0 232.3 221.6 0.00 0.0760112 44.0
2021-01-21 14:55:00 53.3 38.0 28.3 53.3 53.3 17.4 19.9 15.8 232.4 224.8 0.00 0.0576011 44.1
2021-01-21 15:00:00 53.2 37.9 28.2 53.2 53.2 20.3 20.6 16.9 229.0 231.0 0.00 0.0711225 44.2
2021-01-21 15:05:00 53.0 38.5 28.4 53.0 53.0 18.7 23.3 17.6 238.8 229.4 0.00 0.0615000 44.3
2021-01-21 15:10:00 52.8 39.0 28.5 52.8 52.8 20.1 22.4 17.8 201.1 225.0 0.00 0.0619591 44.4
2021-01-21 15:15:00 52.7 39.2 28.5 52.7 52.7 13.3 18.9 16.2 231.8 231.4 0.00 0.0623376 44.5
2021-01-21 15:20:00 53.5 38.1 28.6 53.5 53.5 22.3 22.3 14.7 227.9 226.8 0.00 0.0587400 44.6
2021-01-21 15:25:00 52.3 39.8 28.6 52.3 52.3 16.5 21.4 17.5 229.2 218.6 0.00 0.0559881 44.7
2021-01-21 15:30:00 52.8 37.1 27.3 52.8 52.8 15.6 19.9 15.7 232.0 239.4 0.00 0.0548841 44.8
2021-01-21 15:35:00 52.6 37.0 27.1 52.6 52.6 11.0 18.5 14.7 244.3 238.7 0.00 0.0519115 44.9
2021-01-21 15:40:00 53.3 35.7 26.8 53.3 53.3 14.6 17.1 13.3 225.9 236.8 0.00 0.0492287 45.0
2021-01-21 15:45:00 52.5 35.4 25.9 52.5 52.5 16.2 20.5 16.3 235.9 232.8 0.00 0.0465320 45.1
2021-01-21 15:50:00 52.5 36.9 26.9 52.5 52.5 18.9 20.3 15.9 238.5 241.8 0.00 0.0448047 45.2
2021-01-21 15:55:00 52.3 38.1 27.5 52.3 52.3 11.3 17.1 13.6 261.1 238.5 0.00 0.0424512 45.2
2021-01-21 16:00:00 53.1 36.3 27.0 53.1 53.1 9.9 17.1 11.2 254.0 243.9 0.00 0.0392848 45.3
2021-01-21 16:05:00 52.7 37.2 27.3 52.7 52.7 13.0 17.8 12.4 261.8 247.3 0.00 0.0362498 45.4
2021-01-21 16:10:00 52.6 38.5 28.0 52.6 52.6 10.8 15.1 10.6 224.7 240.1 0.00 0.0341929 45.4
2021-01-21 16:15:00 52.2 37.6 27.1 52.2 52.2 17.2 18.1 14.1 251.3 233.7 0.00 0.0314513 45.5
2021-01-21 16:20:00 51.7 40.8 28.6 51.7 51.7 12.2 17.2 12.5 236.2 234.2 0.00 0.0301188 45.5
2021-01-21 16:25:00 51.3 39.8 27.7 51.3 51.3 14.6 18.3 14.5 221.9 222.5 0.00 0.0330097 45.6
2021-01-21 16:30:00 51.4 39.2 27.4 51.4 51.4 10.1 17.6 13.9 240.4 231.2 0.00 0.0310409 45.7
2021-01-21 16:35:00 51.7 40.0 28.1 51.7 51.7 12.8 18.5 12.5 232.6 238.9 0.00 0.0325834 45.7
2021-01-21 16:40:00 51.2 40.4 27.9 51.2 51.2 15.8 17.8 13.4 239.1 229.4 0.00 0.0288081 45.7
2021-01-21 16:45:00 50.7 40.4 27.5 50.7 50.7 16.9 18.7 13.9 241.1 230.0 0.00 0.0255467 45.8
2021-01-21 16:50:00 50.2 41.2 27.5 50.2 50.2 15.5 20.3 14.3 228.7 233.2 0.00 0.0188090 45.8
2021-01-21 16:55:00 49.4 42.4 27.5 44.2 49.4 13.7 18.5 13.7 243.7 234.6 0.00 0.0112676 45.8
2021-01-21 17:00:00 48.7 43.6 27.5 44.6 48.7 9.4 15.6 12.5 238.7 233.3 0.00 0.0043743 45.8
2021-01-21 17:05:00 47.5 49.4 29.5 41.7 47.5 14.0 14.6 11.5 218.9 221.7 0.00 0.0023807 45.9
2021-01-21 17:10:00 46.9 50.4 29.4 42.3 46.9 9.6 13.3 10.1 229.6 218.9 0.00 0.0020345 45.9
2021-01-21 17:15:00 46.2 51.6 29.4 41.6 46.2 9.2 11.2 8.4 213.0 216.6 0.00 0.0006626 45.9
2021-01-21 17:20:00 45.7 52.5 29.3 42.2 45.7 6.7 10.8 8.1 231.2 218.0 0.00 0.0000000 45.9
2021-01-21 17:25:00 45.1 53.4 29.2 42.0 45.1 5.6 8.5 6.9 227.6 217.4 0.00 0.0000000 45.9
2021-01-21 17:30:00 44.7 54.5 29.3 41.5 44.7 5.8 8.0 6.2 216.9 218.4 0.00 0.0000000 45.9
2021-01-21 17:35:00 44.4 54.9 29.2 41.2 44.4 5.6 7.8 5.7 223.7 220.9 0.00 0.0000000 45.9
2021-01-21 17:40:00 44.0 55.9 29.3 39.8 44.0 7.2 8.5 6.3 210.9 222.0 0.00 0.0000000 45.9
2021-01-21 17:45:00 43.7 56.8 29.3 39.3 43.7 7.4 8.1 6.6 224.0 222.2 0.00 0.0000000 45.8
2021-01-21 17:50:00 43.5 56.8 29.2 39.5 43.5 6.9 8.5 7.3 230.5 226.8 0.00 0.0000000 45.8
2021-01-21 17:55:00 43.2 57.5 29.2 40.3 43.2 4.9 7.4 6.0 244.0 235.6 0.00 0.0000000 45.8
2021-01-21 18:00:00 42.9 58.2 29.2 40.3 42.9 4.4 6.7 5.2 246.3 251.0 0.00 0.0000000 45.8
2021-01-21 18:05:00 42.7 59.0 29.4 39.5 42.7 5.1 6.0 4.6 249.0 255.4 0.00 0.0000000 45.8
2021-01-21 18:10:00 42.2 59.6 29.1 39.8 42.2 4.0 5.6 4.4 265.6 256.8 0.00 0.0000000 45.7
2021-01-21 18:15:00 41.3 60.8 28.7 37.5 41.3 5.6 6.0 4.3 269.4 276.3 0.00 0.0000000 45.7
2021-01-21 18:20:00 41.7 61.8 29.6 36.6 41.7 8.1 8.5 6.3 243.0 253.3 0.00 0.0000000 45.6
2021-01-21 18:25:00 42.2 60.8 29.6 38.8 42.2 5.3 8.5 6.7 259.3 250.5 0.00 0.0000000 45.6
2021-01-21 18:30:00 41.8 62.1 29.8 38.2 41.8 5.6 7.1 5.8 251.9 256.4 0.00 0.0000000 45.5
2021-01-21 18:35:00 41.6 63.1 30.0 37.5 41.6 6.2 6.5 4.7 247.6 262.3 0.00 0.0000000 45.5
2021-01-21 18:40:00 41.6 63.1 30.0 38.3 41.6 5.1 6.2 4.3 272.4 264.4 0.00 0.0000000 45.4
2021-01-21 18:45:00 41.7 62.9 30.0 39.1 41.7 4.2 7.1 3.8 262.8 264.0 0.00 0.0000000 45.4
2021-01-21 18:50:00 41.6 63.4 30.1 37.8 41.6 5.8 5.8 4.0 223.5 258.2 0.00 0.0000000 45.3
2021-01-21 18:55:00 41.7 62.7 29.9 37.7 41.7 6.2 8.7 6.6 227.4 236.8 0.00 0.0000000 45.3
2021-01-21 19:00:00 41.6 62.8 29.9 37.1 41.6 6.9 9.6 6.8 239.2 230.6 0.00 0.0000000 45.2
2021-01-21 19:05:00 41.4 63.3 29.9 37.3 41.4 6.2 8.7 6.8 215.1 226.6 0.00 0.0000000 45.2
2021-01-21 19:10:00 41.0 64.5 29.9 36.9 41.0 6.0 8.1 5.9 219.3 224.0 0.00 0.0000000 45.1
2021-01-21 19:15:00 40.8 64.6 29.8 37.1 40.8 5.5 8.1 6.2 226.3 223.3 0.00 0.0000000 45.0
2021-01-21 19:20:00 40.0 65.9 29.5 35.9 40.0 5.6 6.5 5.4 215.7 213.5 0.00 0.0000000 45.0
2021-01-21 19:25:00 39.6 66.2 29.2 35.5 39.6 5.6 6.5 5.5 228.1 223.2 0.00 0.0000000 44.9
2021-01-21 19:30:00 38.9 67.3 29.0 35.4 38.9 4.7 5.5 4.8 243.5 226.7 0.00 0.0000000 44.8
2021-01-21 19:35:00 38.5 67.7 28.7 35.7 38.5 3.8 4.9 4.0 257.1 244.4 0.00 0.0000000 44.7
2021-01-21 19:40:00 38.3 67.0 28.3 35.9 38.3 3.5 4.9 3.9 293.4 274.1 0.00 0.0000000 44.7
2021-01-21 19:45:00 37.9 68.5 28.5 34.7 37.9 4.2 4.7 3.9 253.3 269.8 0.00 0.0000000 44.6
2021-01-21 19:50:00 37.9 70.3 29.1 33.2 37.9 6.0 6.5 4.9 233.2 248.6 0.00 0.0000000 44.5
2021-01-21 19:55:00 38.4 68.7 29.1 34.0 38.4 5.8 8.5 6.4 236.9 244.0 0.00 0.0000000 44.5
2021-01-21 20:00:00 37.9 70.2 29.1 34.0 37.9 5.1 6.2 4.9 262.6 254.9 0.00 0.0000000 44.4
2021-01-21 20:05:00 37.5 71.7 29.2 33.9 37.5 4.6 5.5 4.7 269.5 265.2 0.00 0.0000000 44.3
2021-01-21 20:10:00 38.1 71.2 29.6 33.1 38.1 6.5 8.0 6.2 254.9 258.1 0.00 0.0000000 44.3
2021-01-21 20:15:00 38.6 70.2 29.7 33.6 38.6 6.7 7.8 6.9 254.3 257.4 0.00 0.0000000 44.2
2021-01-21 20:20:00 38.2 71.0 29.6 33.1 38.2 6.7 7.2 6.0 266.0 264.1 0.00 0.0000000 44.1
2021-01-21 20:25:00 37.8 71.7 29.5 33.8 37.8 5.1 6.0 5.4 271.7 265.1 0.00 0.0000000 44.1
2021-01-21 20:30:00 37.3 71.9 29.1 34.0 37.3 4.2 5.8 4.7 294.2 268.5 0.00 0.0000000 44.0
2021-01-21 20:35:00 36.4 73.8 28.8 32.7 36.4 4.4 5.1 4.1 254.7 269.5 0.00 0.0000000 43.9
2021-01-21 20:40:00 37.1 73.4 29.4 33.1 37.1 4.9 5.3 4.5 299.2 288.1 0.00 0.0000000 43.8
2021-01-21 20:45:00 37.6 72.3 29.5 34.6 37.6 3.8 5.1 4.4 308.3 291.3 0.00 0.0000000 43.8
2021-01-21 20:50:00 37.6 71.5 29.2 34.1 37.6 4.6 5.3 4.4 297.6 289.3 0.00 0.0000000 43.7
2021-01-21 20:55:00 37.5 71.8 29.2 34.2 37.5 4.2 4.6 4.0 275.7 288.7 0.00 0.0000000 43.6
2021-01-21 21:00:00 37.0 72.8 29.1 33.7 37.0 4.2 4.7 4.1 304.9 289.0 0.00 0.0000000 43.5
2021-01-21 21:05:00 36.6 73.2 28.9 32.4 36.6 5.1 5.6 4.5 289.3 285.2 0.00 0.0000000 43.5
2021-01-21 21:10:00 36.9 73.1 29.0 32.0 36.9 6.0 6.9 5.5 270.9 277.0 0.00 0.0000000 43.4
2021-01-21 21:15:00 37.2 71.7 28.9 32.2 37.2 6.3 7.1 5.8 272.2 271.2 0.00 0.0000000 43.3
2021-01-21 21:20:00 37.3 70.4 28.6 32.2 37.3 6.5 6.9 6.3 274.4 271.9 0.00 0.0000000 43.2
2021-01-21 21:25:00 37.5 69.8 28.5 32.0 37.5 7.1 7.6 6.6 263.5 265.3 0.00 0.0000000 43.1
2021-01-21 21:30:00 37.3 69.4 28.2 32.7 37.3 5.8 7.4 6.3 274.0 266.6 0.00 0.0000000 43.1
2021-01-21 21:35:00 37.0 69.3 27.9 32.0 37.0 6.3 7.1 6.2 260.9 264.2 0.00 0.0000000 43.0
2021-01-21 21:40:00 37.2 68.3 27.8 33.1 37.2 5.1 7.4 6.3 260.3 260.8 0.00 0.0000000 42.9
2021-01-21 21:45:00 36.9 68.2 27.4 33.1 36.9 4.6 6.3 5.0 234.1 258.2 0.00 0.0000000 42.9
2021-01-21 21:50:00 35.9 70.0 27.1 33.0 35.9 3.7 5.3 4.5 233.8 238.9 0.00 0.0000000 42.8
2021-01-21 21:55:00 35.1 72.4 27.1 32.2 35.1 3.5 4.4 3.9 194.9 228.1 0.00 0.0000000 42.7
2021-01-21 22:00:00 34.5 73.1 26.7 30.2 34.5 4.7 4.9 4.0 6.6 217.3 0.00 0.0000000 42.6
2021-01-21 22:05:00 33.9 74.6 26.7 28.8 33.9 5.6 6.0 5.3 225.2 206.9 0.00 0.0000000 42.5
2021-01-21 22:10:00 33.3 76.6 26.7 28.5 33.3 5.1 6.3 5.5 218.0 223.5 0.00 0.0000000 42.5
2021-01-21 22:15:00 32.9 76.6 26.3 27.7 32.9 5.5 6.5 5.4 242.8 235.9 0.00 0.0000000 42.4
2021-01-21 22:20:00 32.6 76.8 26.1 27.2 32.6 5.6 6.5 6.0 248.9 243.6 0.00 0.0000000 42.3
2021-01-21 22:25:00 34.2 73.9 26.8 29.4 34.2 5.3 6.3 5.9 259.3 252.9 0.00 0.0000000 42.3
2021-01-21 22:30:00 35.0 71.9 26.9 31.7 35.0 3.8 6.3 5.3 272.2 265.0 0.00 0.0000000 42.2
2021-01-21 22:35:00 35.1 71.7 26.9 31.1 35.1 4.6 5.3 4.7 259.3 264.1 0.00 0.0000000 42.1
2021-01-21 22:40:00 34.8 72.1 26.7 30.4 34.8 4.9 5.5 4.9 249.5 256.5 0.00 0.0000000 42.0
2021-01-21 22:45:00 34.9 71.6 26.7 30.4 34.9 5.1 5.1 4.6 250.8 256.5 0.00 0.0000000 42.0
2021-01-21 22:50:00 34.8 71.5 26.5 30.7 34.8 4.6 4.9 4.3 255.6 257.8 0.00 0.0000000 41.9
2021-01-21 22:55:00 34.7 71.7 26.5 30.0 34.7 5.3 5.8 4.8 238.9 253.5 0.00 0.0000000 41.8
2021-01-21 23:00:00 35.3 70.0 26.5 30.7 35.3 5.3 6.7 5.9 246.2 252.3 0.00 0.0000000 41.8
2021-01-21 23:05:00 34.3 71.9 26.2 28.4 34.3 6.9 7.4 6.3 242.0 241.2 0.00 0.0000000 41.7
2021-01-21 23:10:00 33.2 74.0 25.8 27.4 33.2 6.3 7.4 6.0 232.3 235.5 0.00 0.0000000 41.6
2021-01-21 23:15:00 32.5 76.7 26.0 26.7 32.5 6.2 7.1 6.2 237.2 232.9 0.00 0.0000000 41.6
2021-01-21 23:20:00 33.0 76.1 26.3 26.7 33.0 6.9 7.6 6.5 252.5 240.8 0.00 0.0000000 41.5
2021-01-21 23:25:00 33.0 76.0 26.3 26.5 33.0 7.2 7.6 6.6 254.2 241.7 0.00 0.0000000 41.4
2021-01-21 23:30:00 33.5 74.6 26.3 26.6 33.5 8.1 8.1 7.2 239.0 240.7 0.00 0.0000000 41.3
2021-01-21 23:35:00 33.5 73.9 26.1 27.8 33.5 6.3 7.8 7.0 233.7 238.5 0.00 0.0000000 41.3
2021-01-21 23:40:00 33.8 74.0 26.4 25.2 33.8 11.5 11.5 8.4 231.7 228.6 0.00 0.0000000 41.2
2021-01-21 23:45:00 34.6 71.6 26.4 27.3 34.6 9.2 10.5 9.1 236.2 239.1 0.00 0.0000000 41.1
2021-01-21 23:50:00 34.7 71.1 26.3 28.4 34.7 7.6 9.7 8.2 228.3 243.3 0.00 0.0000000 41.1
2021-01-21 23:55:00 34.8 70.6 26.3 27.1 34.8 10.3 10.3 8.6 239.8 241.8 0.00 0.0000000 41.0
2021-01-22 00:00:00 35.5 69.2 26.4 27.8 35.5 10.5 10.8 8.8 250.3 245.0 0.00 0.0000000 40.9
2021-01-22 00:05:00 35.6 68.9 26.4 29.7 35.6 7.2 10.3 8.4 246.0 241.5 0.00 0.0000000 40.9
2021-01-22 00:10:00 35.0 70.2 26.3 28.9 35.0 7.4 9.0 7.7 255.8 249.7 0.00 0.0000000 40.8
2021-01-22 00:15:00 35.0 70.7 26.5 28.6 35.0 7.8 9.2 8.3 197.7 248.6 0.00 0.0000000 40.7
2021-01-22 00:20:00 35.1 71.8 26.9 28.0 35.1 9.2 10.3 8.8 246.4 248.6 0.00 0.0000000 40.7
2021-01-22 00:25:00 35.1 73.7 27.6 28.5 35.1 8.3 9.7 8.6 245.6 249.3 0.00 0.0000000 40.6
2021-01-22 00:30:00 35.5 74.5 28.2 28.3 35.5 9.6 11.0 9.2 255.7 245.0 0.00 0.0000000 40.5
2021-01-22 00:35:00 35.6 74.9 28.5 30.0 35.6 6.7 10.3 8.6 249.8 251.0 0.00 0.0000000 40.5
2021-01-22 00:40:00 34.3 78.4 28.3 28.0 34.3 7.4 8.3 7.1 273.6 268.0 0.00 0.0000000 40.4
2021-01-22 00:45:00 34.0 79.9 28.5 27.4 34.0 7.8 9.2 7.6 283.0 267.7 0.00 0.0000000 40.4
2021-01-22 00:50:00 33.2 83.8 28.8 26.1 33.2 8.3 8.8 7.3 270.7 269.0 0.00 0.0000000 40.3
2021-01-22 00:55:00 33.4 84.1 29.1 26.4 33.4 8.1 9.6 7.8 251.4 263.6 0.00 0.0000000 40.2
2021-01-22 01:00:00 33.0 85.1 29.0 25.7 33.0 8.5 8.8 7.3 245.6 266.8 0.00 0.0000000 40.2
2021-01-22 01:05:00 33.9 82.5 29.2 27.7 33.9 7.1 9.2 7.8 257.0 251.0 0.00 0.0000000 40.1
2021-01-22 01:10:00 34.5 80.7 29.2 28.3 34.5 7.2 10.3 7.6 234.9 249.4 0.00 0.0000000 40.1
2021-01-22 01:15:00 34.3 80.9 29.0 28.2 34.3 7.1 8.3 6.8 263.0 249.8 0.00 0.0000000 40.0
2021-01-22 01:20:00 34.4 80.8 29.1 27.9 34.4 7.8 11.0 7.6 254.0 248.3 0.00 0.0000000 39.9
2021-01-22 01:25:00 34.8 80.4 29.4 26.6 34.8 11.2 11.2 8.8 264.4 250.2 0.00 0.0000000 39.9
2021-01-22 01:30:00 34.9 79.8 29.3 28.0 34.9 8.7 11.7 10.1 249.0 251.8 0.00 0.0000000 39.8
2021-01-22 01:35:00 34.7 81.1 29.5 25.9 34.7 12.4 12.4 9.3 244.9 249.2 0.00 0.0000000 39.8
2021-01-22 01:40:00 34.9 80.1 29.4 26.2 34.9 12.4 13.7 11.0 230.5 242.5 0.00 0.0000000 39.7
2021-01-22 01:45:00 35.1 79.5 29.4 27.2 35.1 10.8 13.7 10.7 210.2 237.5 0.00 0.0000000 39.7
2021-01-22 01:50:00 35.0 79.9 29.4 28.5 35.0 8.0 12.6 10.2 241.9 239.8 0.00 0.0000000 39.7
2021-01-22 01:55:00 34.8 80.7 29.4 26.2 34.8 12.2 12.2 9.7 240.9 243.3 0.00 0.0000000 39.6
2021-01-22 02:00:00 34.8 79.3 29.1 27.5 34.8 9.4 12.1 9.8 231.7 241.9 0.00 0.0000000 39.5
2021-01-22 02:05:00 34.9 78.6 28.9 28.0 34.9 8.7 11.5 9.4 255.5 246.7 0.00 0.0000000 39.5
2021-01-22 02:10:00 35.3 77.6 29.0 27.8 35.3 9.9 12.1 9.9 223.4 245.1 0.00 0.0000000 39.4
2021-01-22 02:15:00 35.0 78.1 28.8 27.5 35.0 9.7 11.2 9.2 250.1 245.7 0.00 0.0000000 39.4
2021-01-22 02:20:00 34.9 78.4 28.9 27.0 34.9 10.6 11.3 9.7 263.7 249.6 0.00 0.0000000 39.4
2021-01-22 02:25:00 34.6 79.2 28.8 26.5 34.6 10.8 10.8 9.2 263.1 249.9 0.00 0.0000000 39.3
2021-01-22 02:30:00 34.4 79.1 28.6 27.4 34.4 8.7 10.6 8.5 249.5 255.8 0.00 0.0000000 39.3
2021-01-22 02:35:00 34.0 79.4 28.3 27.2 34.0 8.1 10.1 8.1 265.0 256.3 0.00 0.0000000 39.2
2021-01-22 02:40:00 34.0 78.2 27.9 26.9 34.0 8.5 9.4 7.9 251.3 257.9 0.00 0.0000000 39.2
2021-01-22 02:45:00 33.8 78.2 27.7 27.7 33.8 6.9 8.5 7.4 242.5 251.6 0.00 0.0000000 39.1
2021-01-22 02:50:00 33.6 78.7 27.7 26.0 33.6 9.4 9.4 7.7 259.6 246.4 0.00 0.0000000 39.1
2021-01-22 02:55:00 33.9 77.3 27.5 26.5 33.9 9.0 9.9 8.7 237.6 245.2 0.00 0.0000000 39.0
2021-01-22 03:00:00 34.2 75.6 27.3 27.8 34.2 7.6 10.1 8.9 233.0 246.6 0.00 0.0000000 39.0
2021-01-22 03:05:00 34.5 74.2 27.2 27.1 34.5 9.6 10.1 8.9 242.6 251.8 0.00 0.0000000 39.0
2021-01-22 03:10:00 34.8 73.0 27.0 28.1 34.8 8.1 10.5 8.8 261.5 248.3 0.00 0.0000000 38.9
2021-01-22 03:15:00 34.8 72.4 26.9 28.5 34.8 7.6 9.9 8.7 263.8 252.4 0.00 0.0000000 38.9
2021-01-22 03:20:00 34.7 72.6 26.8 28.0 34.7 8.3 9.4 8.4 277.6 253.9 0.00 0.0000000 38.8
2021-01-22 03:25:00 34.4 72.9 26.6 27.8 34.4 8.0 10.3 8.6 254.1 253.2 0.00 0.0000000 38.8
2021-01-22 03:30:00 34.2 73.4 26.6 28.1 34.2 7.1 9.6 7.4 275.0 260.4 0.00 0.0000000 38.8
2021-01-22 03:35:00 34.2 73.6 26.6 28.0 34.2 7.1 9.0 7.2 257.8 261.4 0.00 0.0000000 38.7
2021-01-22 03:40:00 34.2 74.0 26.7 28.1 34.2 6.9 9.2 6.9 233.3 256.7 0.00 0.0000000 38.7
2021-01-22 03:45:00 34.2 74.1 26.8 29.2 34.2 5.5 8.3 6.7 279.1 257.1 0.00 0.0000000 38.7
2021-01-22 03:50:00 34.2 74.6 26.9 28.1 34.2 6.9 9.0 7.2 231.6 251.5 0.00 0.0000000 38.6
2021-01-22 03:55:00 34.2 74.1 26.9 27.8 34.2 7.6 9.9 8.6 240.5 249.7 0.00 0.0000000 38.6
2021-01-22 04:00:00 34.3 73.7 26.8 27.2 34.3 8.7 11.5 8.9 234.2 245.2 0.00 0.0000000 38.5
2021-01-22 04:05:00 34.0 74.3 26.7 27.6 34.0 7.4 9.9 7.7 284.0 266.5 0.00 0.0000000 38.5
2021-01-22 04:10:00 33.1 75.9 26.3 26.6 33.1 7.2 8.7 7.5 275.3 273.2 0.00 0.0000000 38.5
2021-01-22 04:15:00 32.4 76.9 26.0 27.0 32.4 5.6 7.2 6.0 255.1 268.8 0.00 0.0000000 38.4
2021-01-22 04:20:00 32.0 77.1 25.6 27.8 32.0 4.2 6.3 5.0 293.7 282.2 0.00 0.0000000 38.4
2021-01-22 04:25:00 31.6 78.6 25.8 26.4 31.6 5.3 6.0 4.8 272.7 278.4 0.00 0.0000000 38.3
2021-01-22 04:30:00 32.0 77.7 25.8 27.6 32.0 4.4 5.3 4.7 274.4 266.5 0.00 0.0000000 38.3
2021-01-22 04:35:00 31.6 78.5 25.7 31.6 31.6 2.6 4.4 3.5 288.8 281.7 0.00 0.0000000 38.3
2021-01-22 04:40:00 32.1 77.7 25.9 28.7 32.1 3.5 5.1 3.7 297.4 296.6 0.00 0.0000000 38.2
2021-01-22 04:45:00 32.2 75.9 25.4 32.2 32.2 2.4 4.0 3.0 339.6 316.3 0.00 0.0000000 38.2
2021-01-22 04:50:00 32.1 76.6 25.6 26.6 32.1 5.6 7.1 4.0 285.9 295.4 0.00 0.0000000 38.1
2021-01-22 04:55:00 32.8 74.1 25.5 27.2 32.8 6.0 9.2 7.3 286.3 254.7 0.00 0.0000000 38.1
2021-01-22 05:00:00 33.2 73.4 25.6 26.6 33.2 7.4 8.7 7.3 251.6 258.1 0.00 0.0000000 38.1
2021-01-22 05:05:00 33.7 71.8 25.6 27.8 33.7 6.7 7.8 6.8 293.2 267.5 0.00 0.0000000 38.0
2021-01-22 05:10:00 35.1 68.6 25.8 28.4 35.1 8.3 9.9 6.8 225.1 267.8 0.00 0.0000000 38.0
2021-01-22 05:15:00 35.9 66.6 25.9 29.1 35.9 8.8 9.2 7.3 269.1 272.3 0.00 0.0000000 38.0
2021-01-22 05:20:00 35.9 66.8 26.0 31.6 35.9 5.1 8.7 6.5 280.7 255.0 0.00 0.0000000 37.9
2021-01-22 05:25:00 35.9 66.3 25.8 32.2 35.9 4.4 7.2 5.2 242.0 243.1 0.00 0.0000000 37.9

Data is courtesy of the NM Climate Center. DO NOT USE IN LEGAL PROCEEDINGS.